createdAt,value
2022-08-22T00:02:42.243Z,48.15
2022-08-22T00:02:46.133Z,53.53
2022-08-22T00:02:48.244Z,49.95
2022-08-22T00:02:54.059Z,53.33
2022-08-22T00:03:09.592Z,49.70
2022-08-22T00:06:18.866Z,24.85
2022-08-22T00:09:31.007Z,21.65
2022-08-22T00:12:33.302Z,20.42
2022-08-22T00:15:42.077Z,19.63
2022-08-22T00:18:42.282Z,21.05
2022-08-22T00:21:38.055Z,20.60
2022-08-22T00:24:51.061Z,19.70
2022-08-22T00:27:51.734Z,18.70
2022-08-22T00:30:57.686Z,16.77
2022-08-22T00:33:58.455Z,17.48
2022-08-22T00:37:12.239Z,17.15
2022-08-22T00:40:21.026Z,15.68
2022-08-22T00:43:32.756Z,12.82
2022-08-22T00:46:37.401Z,13.02
2022-08-22T00:49:39.560Z,12.50
2022-08-22T00:52:34.634Z,13.80
2022-08-22T00:55:46.483Z,12.23
2022-08-22T00:58:47.615Z,10.52
2022-08-22T01:01:42.545Z,10.43
2022-08-22T01:04:46.924Z,12.30
2022-08-22T01:07:55.108Z,11.63
2022-08-22T01:10:53.907Z,12.00
2022-08-22T01:14:02.197Z,12.02
2022-08-22T01:17:02.202Z,11.60
2022-08-22T01:20:25.708Z,12.30
2022-08-22T01:23:40.555Z,12.25
2022-08-22T01:26:47.937Z,11.27
2022-08-22T01:29:41.355Z,11.23
2022-08-22T01:33:24.228Z,10.95
2022-08-22T01:36:38.238Z,11.57
2022-08-22T01:39:47.740Z,11.43
2022-08-22T01:42:55.655Z,12.13
2022-08-22T01:45:55.941Z,13.15
2022-08-22T01:48:53.855Z,13.05
2022-08-22T01:51:55.778Z,13.18
2022-08-22T01:54:55.470Z,12.50
2022-08-22T01:58:01.791Z,13.57
2022-08-22T02:01:26.659Z,13.13
2022-08-22T02:04:38.593Z,12.57
2022-08-22T02:07:50.795Z,12.95
2022-08-22T02:11:07.428Z,14.60
2022-08-22T02:14:19.983Z,13.35
2022-08-22T02:17:13.159Z,12.38
2022-08-22T02:20:20.417Z,13.32
2022-08-22T02:23:19.946Z,12.70
2022-08-22T02:26:18.283Z,12.18
2022-08-22T02:29:21.696Z,14.38
2022-08-22T02:32:22.713Z,11.52
2022-08-22T02:35:20.246Z,12.27
2022-08-22T02:38:14.765Z,13.25
2022-08-22T02:41:23.135Z,12.95
2022-08-22T02:44:50.030Z,12.88
2022-08-22T02:48:08.499Z,10.80
2022-08-22T02:51:13.005Z,12.00
2022-08-22T02:54:33.322Z,10.02
2022-08-22T02:57:49.184Z,8.30
2022-08-22T03:00:54.655Z,7.53
2022-08-22T03:03:48.559Z,6.95
2022-08-22T03:06:49.277Z,6.60
2022-08-22T03:09:58.385Z,7.15
2022-08-22T03:12:57.580Z,5.78
2022-08-22T03:15:56.926Z,6.10
2022-08-22T03:19:07.947Z,6.03
2022-08-22T03:22:03.865Z,8.38
2022-08-22T03:25:32.595Z,9.10
2022-08-22T03:28:59.585Z,7.40
2022-08-22T03:32:10.831Z,6.78
2022-08-22T03:35:05.115Z,6.70
2022-08-22T03:38:10.492Z,7.20
2022-08-22T03:41:14.525Z,6.63
2022-08-22T03:44:37.865Z,7.05
2022-08-22T03:48:08.366Z,7.85
2022-08-22T03:51:25.815Z,6.82
2022-08-22T03:54:37.925Z,7.22
2022-08-22T03:57:45.665Z,6.97
2022-08-22T04:00:50.542Z,7.45
2022-08-22T04:04:27.776Z,7.70
2022-08-22T04:07:32.217Z,8.20
2022-08-22T04:10:35.344Z,7.45
2022-08-22T04:13:52.776Z,7.75
2022-08-22T04:17:13.198Z,7.90
2022-08-22T04:20:56.367Z,8.52
2022-08-22T04:23:54.276Z,9.20
2022-08-22T04:27:05.640Z,9.95
2022-08-22T04:30:20.121Z,9.95
2022-08-22T04:33:15.765Z,9.25
2022-08-22T04:36:13.572Z,9.13
2022-08-22T04:39:07.674Z,9.50
2022-08-22T04:42:37.776Z,9.77
2022-08-22T04:45:45.765Z,9.48
2022-08-22T04:48:44.491Z,9.55
2022-08-22T04:51:44.178Z,9.32
2022-08-22T04:54:43.045Z,8.98
2022-08-22T04:57:54.937Z,9.70
2022-08-22T05:00:53.635Z,8.90
2022-08-22T05:03:52.254Z,9.57
2022-08-22T05:06:49.452Z,8.60
2022-08-22T05:09:41.125Z,8.95
2022-08-22T05:12:34.602Z,9.48
2022-08-22T05:15:38.065Z,9.70
2022-08-22T05:18:32.305Z,9.27
2022-08-22T05:21:27.151Z,9.70
2022-08-22T05:24:27.999Z,9.38
2022-08-22T05:27:25.526Z,9.00
2022-08-22T05:30:23.110Z,8.90
2022-08-22T05:33:41.223Z,9.10
2022-08-22T05:36:40.876Z,8.60
2022-08-22T05:39:31.449Z,8.45
2022-08-22T05:42:33.380Z,8.93
2022-08-22T05:45:25.933Z,9.48
2022-08-22T05:48:21.939Z,9.65
2022-08-22T05:51:23.512Z,9.48
2022-08-22T05:54:33.531Z,9.50
2022-08-22T05:57:29.193Z,9.70
2022-08-22T06:00:24.271Z,9.45
2022-08-22T06:03:42.209Z,9.02
2022-08-22T06:06:36.944Z,9.95
2022-08-22T06:09:35.863Z,10.32
2022-08-22T06:12:44.519Z,8.73
2022-08-22T06:16:01.809Z,12.38
2022-08-22T06:18:53.812Z,10.52
2022-08-22T06:21:44.369Z,11.38
2022-08-22T06:24:38.019Z,10.80
2022-08-22T06:27:31.069Z,10.88
2022-08-22T06:30:21.604Z,10.60
2022-08-22T06:33:15.309Z,11.70
2022-08-22T06:36:33.856Z,12.82
2022-08-22T06:39:31.512Z,11.63
2022-08-22T06:42:27.344Z,11.20
2022-08-22T06:45:30.972Z,11.48
2022-08-22T06:48:25.610Z,11.07
2022-08-22T06:51:16.473Z,12.40
2022-08-22T06:54:12.001Z,11.93
2022-08-22T06:57:02.100Z,12.13
2022-08-22T06:59:52.308Z,12.88
2022-08-22T07:02:59.653Z,12.57
2022-08-22T07:05:49.431Z,11.85
2022-08-22T07:08:39.431Z,11.35
2022-08-22T07:11:39.061Z,11.23
2022-08-22T07:14:44.619Z,9.98
2022-08-22T07:17:37.836Z,10.40
2022-08-22T07:20:36.462Z,11.68
2022-08-22T07:23:39.324Z,9.38
2022-08-22T07:26:33.825Z,8.60
2022-08-22T07:30:05.061Z,7.78
2022-08-22T07:33:20.986Z,8.60
2022-08-22T07:36:28.380Z,7.53
2022-08-22T07:39:40.634Z,9.27
2022-08-22T07:42:43.956Z,9.10
2022-08-22T07:45:42.188Z,10.48
2022-08-22T07:48:53.491Z,9.07
2022-08-22T07:51:49.274Z,11.60
2022-08-22T07:55:05.795Z,9.05
2022-08-22T07:58:01.186Z,8.23
2022-08-22T08:00:55.226Z,9.65
2022-08-22T08:03:53.831Z,8.02
2022-08-22T08:06:43.718Z,8.85
2022-08-22T08:09:36.681Z,9.63
2022-08-22T08:12:33.644Z,9.02
2022-08-22T08:15:25.491Z,7.90
2022-08-22T08:18:22.189Z,6.63
2022-08-22T08:21:25.813Z,7.05
2022-08-22T08:24:26.239Z,6.80
2022-08-22T08:27:37.619Z,6.95
2022-08-22T08:30:38.330Z,6.88
2022-08-22T08:33:30.988Z,6.25
2022-08-22T08:36:51.805Z,6.18
2022-08-22T08:39:54.619Z,6.47
2022-08-22T08:43:26.356Z,7.07
2022-08-22T08:46:15.879Z,6.45
2022-08-22T08:49:25.449Z,6.05
2022-08-22T08:52:30.855Z,7.07
2022-08-22T08:55:43.679Z,6.20
2022-08-22T08:58:45.203Z,7.15
2022-08-22T09:01:56.842Z,6.70
2022-08-22T09:05:26.815Z,5.85
2022-08-22T09:08:27.602Z,6.35
2022-08-22T09:11:48.752Z,5.72
2022-08-22T09:14:47.188Z,7.97
2022-08-22T09:18:18.259Z,8.45
2022-08-22T09:21:30.563Z,6.22
2022-08-22T09:24:41.330Z,6.40
2022-08-22T09:27:44.340Z,6.72
2022-08-22T09:30:59.571Z,7.15
2022-08-22T09:34:14.634Z,7.20
2022-08-22T09:37:28.666Z,7.85
2022-08-22T09:40:33.110Z,7.60
2022-08-22T09:43:46.576Z,6.93
2022-08-22T09:46:57.573Z,6.32
2022-08-22T09:50:13.632Z,7.15
2022-08-22T09:53:42.975Z,7.28
2022-08-22T09:56:57.736Z,7.07
2022-08-22T09:59:59.013Z,6.93
2022-08-22T10:03:19.894Z,5.05
2022-08-22T10:06:21.964Z,5.72
2022-08-22T10:09:31.285Z,5.15
2022-08-22T10:12:49.039Z,4.85
2022-08-22T10:15:42.377Z,5.05
2022-08-22T10:18:52.537Z,4.78
2022-08-22T10:22:05.769Z,4.68
2022-08-22T10:25:14.013Z,5.35
2022-08-22T10:28:21.357Z,5.30
2022-08-22T10:31:31.852Z,5.93
2022-08-22T10:34:25.741Z,5.28
2022-08-22T10:37:33.987Z,5.40
2022-08-22T10:40:36.005Z,4.30
2022-08-22T10:43:46.243Z,5.93
2022-08-22T10:46:54.367Z,5.95
2022-08-22T10:50:08.570Z,5.20
2022-08-22T10:53:28.922Z,5.00
2022-08-22T10:56:24.214Z,4.25
2022-08-22T10:59:26.949Z,6.45
2022-08-22T11:02:33.159Z,4.80
2022-08-22T11:05:37.115Z,5.05
2022-08-22T11:08:52.073Z,4.55
2022-08-22T11:12:14.984Z,5.45
2022-08-22T11:15:14.306Z,4.70
2022-08-22T11:18:23.558Z,5.90
2022-08-22T11:21:30.466Z,4.68
2022-08-22T11:24:35.633Z,5.25
2022-08-22T11:28:07.308Z,5.30
2022-08-22T11:31:21.126Z,5.10
2022-08-22T11:34:48.965Z,5.70
2022-08-22T11:37:43.333Z,5.70
2022-08-22T11:40:48.914Z,5.07
2022-08-22T11:43:56.822Z,4.80
2022-08-22T11:46:52.199Z,5.85
2022-08-22T11:50:07.207Z,5.50
2022-08-22T11:53:41.486Z,6.05
2022-08-22T11:56:41.620Z,5.55
2022-08-22T11:59:39.990Z,6.32
2022-08-22T12:02:41.388Z,4.95
2022-08-22T12:05:49.004Z,5.97
2022-08-22T12:08:38.810Z,5.00
2022-08-22T12:11:45.812Z,5.10
2022-08-22T12:15:02.248Z,6.20
2022-08-22T12:18:29.783Z,5.25
2022-08-22T12:21:38.615Z,5.90
2022-08-22T12:24:43.654Z,4.90
2022-08-22T12:28:08.064Z,4.75
2022-08-22T12:31:07.805Z,5.00
2022-08-22T12:34:24.390Z,4.85
2022-08-22T12:37:23.364Z,3.88
2022-08-22T12:40:19.362Z,4.00
2022-08-22T12:43:33.727Z,3.15
2022-08-22T12:46:50.722Z,3.50
2022-08-22T12:49:44.959Z,3.85
2022-08-22T12:53:04.771Z,4.10
2022-08-22T12:56:06.258Z,3.70
2022-08-22T12:59:13.790Z,3.92
2022-08-22T13:02:21.632Z,4.70
2022-08-22T13:05:19.716Z,3.58
2022-08-22T13:08:32.988Z,3.85
2022-08-22T13:11:24.379Z,5.18
2022-08-22T13:14:19.561Z,6.65
2022-08-22T13:17:25.097Z,5.88
2022-08-22T13:20:26.697Z,4.93
2022-08-22T13:23:31.488Z,4.78
2022-08-22T13:26:32.817Z,4.20
2022-08-22T13:29:46.981Z,3.10
2022-08-22T13:32:47.874Z,2.90
2022-08-22T13:35:55.453Z,2.40
2022-08-22T13:39:19.591Z,2.60
2022-08-22T13:42:14.264Z,3.47
2022-08-22T13:45:11.425Z,3.10
2022-08-22T13:48:15.540Z,2.85
2022-08-22T13:51:26.170Z,3.20
2022-08-22T13:54:28.752Z,2.80
2022-08-22T13:57:18.578Z,2.83
2022-08-22T14:00:57.365Z,2.67
2022-08-22T14:04:17.595Z,2.47
2022-08-22T14:07:23.910Z,2.80
2022-08-22T14:10:27.996Z,3.00
2022-08-22T14:13:18.945Z,2.30
2022-08-22T14:16:15.116Z,2.90
2022-08-22T14:19:12.352Z,2.53
2022-08-22T14:22:14.374Z,2.67
2022-08-22T14:25:11.341Z,2.92
2022-08-22T14:28:06.525Z,2.80
2022-08-22T14:31:13.725Z,2.80
2022-08-22T14:34:13.429Z,2.75
2022-08-22T14:37:14.410Z,2.83
2022-08-22T14:40:13.832Z,3.00
2022-08-22T14:43:22.163Z,3.38
2022-08-22T14:46:26.587Z,3.10
2022-08-22T14:49:30.235Z,3.92
2022-08-22T14:52:29.704Z,2.80
2022-08-22T14:55:30.584Z,2.75
2022-08-22T14:58:26.527Z,2.78
2022-08-22T15:01:23.683Z,2.63
2022-08-22T15:04:19.291Z,2.60
2022-08-22T15:07:12.911Z,3.72
2022-08-22T15:10:11.825Z,6.20
2022-08-22T15:13:05.356Z,3.40
2022-08-22T15:16:03.485Z,3.72
2022-08-22T15:18:55.895Z,3.33
2022-08-22T15:21:47.295Z,3.25
2022-08-22T15:25:04.646Z,3.10
2022-08-22T15:28:20.044Z,3.22
2022-08-22T15:31:21.049Z,3.40
2022-08-22T15:34:18.104Z,3.22
2022-08-22T15:37:23.005Z,3.03
2022-08-22T15:40:32.178Z,2.70
2022-08-22T15:43:34.888Z,3.15
2022-08-22T15:46:33.321Z,3.00
2022-08-22T15:49:23.102Z,2.63
2022-08-22T15:52:23.700Z,3.10
2022-08-22T15:55:30.395Z,3.40
2022-08-22T15:58:25.728Z,3.30
2022-08-22T16:01:20.684Z,3.35
2022-08-22T16:04:18.144Z,3.17
2022-08-22T16:07:42.503Z,3.13
2022-08-22T16:10:35.523Z,2.78
2022-08-22T16:13:31.924Z,2.78
2022-08-22T16:16:27.802Z,3.20
2022-08-22T16:19:21.813Z,3.70
2022-08-22T16:22:12.478Z,2.97
2022-08-22T16:25:04.117Z,4.15
2022-08-22T16:27:55.717Z,3.47
2022-08-22T16:30:45.182Z,4.25
2022-08-22T16:33:41.318Z,4.40
2022-08-22T16:37:00.475Z,3.90
2022-08-22T16:40:06.930Z,2.97
2022-08-22T16:43:17.503Z,2.90
2022-08-22T16:46:33.309Z,2.30
2022-08-22T16:49:34.978Z,1.77
2022-08-22T16:52:27.697Z,3.15
2022-08-22T16:55:32.325Z,2.22
2022-08-22T16:58:56.577Z,2.60
2022-08-22T17:01:48.908Z,2.70
2022-08-22T17:05:25.405Z,3.35
2022-08-22T17:08:31.901Z,3.10
2022-08-22T17:11:30.849Z,3.00
2022-08-22T17:14:55.085Z,3.03
2022-08-22T17:17:53.978Z,2.50
2022-08-22T17:21:05.054Z,2.50
2022-08-22T17:24:02.805Z,2.80
2022-08-22T17:27:00.581Z,3.33
2022-08-22T17:30:01.160Z,2.97
2022-08-22T17:33:13.684Z,2.85
2022-08-22T17:36:26.610Z,3.15
2022-08-22T17:39:38.567Z,2.40
2022-08-22T17:42:53.397Z,2.70
2022-08-22T17:45:55.497Z,2.75
2022-08-22T17:48:54.242Z,2.58
2022-08-22T17:52:33.540Z,2.28
2022-08-22T17:56:04.852Z,2.65
2022-08-22T17:59:31.601Z,2.88
2022-08-22T18:02:25.403Z,3.63
2022-08-22T18:06:00.895Z,2.75
2022-08-22T18:12:19.243Z,3.05
2022-08-22T18:15:31.601Z,3.20
2022-08-22T18:18:31.228Z,3.15
2022-08-22T18:21:35.295Z,3.20
2022-08-22T18:24:33.145Z,3.47
2022-08-22T18:27:39.076Z,3.25
2022-08-22T18:30:33.025Z,3.35
2022-08-22T18:33:51.992Z,3.05
2022-08-22T18:37:09.277Z,3.67
2022-08-22T18:40:13.530Z,3.20
2022-08-22T18:43:19.635Z,4.00
2022-08-22T18:46:29.050Z,4.32
2022-08-22T18:49:21.605Z,3.80
2022-08-22T18:52:15.857Z,3.65
2022-08-22T18:55:23.622Z,3.65
2022-08-22T18:58:35.838Z,3.50
2022-08-22T19:01:39.359Z,4.13
2022-08-22T19:04:45.274Z,3.90
2022-08-22T19:07:52.905Z,4.00
2022-08-22T19:10:59.943Z,4.32
2022-08-22T19:14:29.297Z,3.92
2022-08-22T19:17:31.295Z,3.35
2022-08-22T19:20:52.703Z,3.20
2022-08-22T19:23:47.649Z,3.28
2022-08-22T19:26:46.144Z,3.17
2022-08-22T19:29:38.083Z,2.95
2022-08-22T19:32:48.709Z,3.72
2022-08-22T19:35:38.621Z,5.07
2022-08-22T19:38:52.714Z,4.25
2022-08-22T19:41:47.639Z,3.60
2022-08-22T19:44:43.523Z,3.35
2022-08-22T19:47:41.933Z,5.15
2022-08-22T19:50:36.574Z,3.92
2022-08-22T19:53:40.852Z,4.60
2022-08-22T19:57:00.254Z,3.45
2022-08-22T20:00:15.191Z,3.15
2022-08-22T20:03:10.113Z,3.45
2022-08-22T20:06:22.026Z,2.78
2022-08-22T20:09:56.463Z,3.15
2022-08-22T20:13:05.566Z,3.05
2022-08-22T20:16:25.448Z,3.08
2022-08-22T20:19:17.827Z,2.58
2022-08-22T20:22:09.567Z,2.20
2022-08-22T20:25:00.737Z,2.50
2022-08-22T20:27:53.291Z,3.30
2022-08-22T20:30:45.375Z,2.80
2022-08-22T20:33:39.569Z,3.45
2022-08-22T20:36:29.712Z,3.28
2022-08-22T20:39:29.156Z,2.97
2022-08-22T20:42:20.119Z,2.58
2022-08-22T20:45:12.110Z,3.75
2022-08-22T20:48:02.546Z,4.25
2022-08-22T20:50:53.520Z,4.22
2022-08-22T20:53:43.936Z,3.60
2022-08-22T20:56:56.228Z,2.90
2022-08-22T20:59:57.254Z,3.05
2022-08-22T21:03:03.904Z,3.60
2022-08-22T21:05:53.151Z,3.33
2022-08-22T21:08:43.871Z,3.70
2022-08-22T21:11:41.836Z,2.30
2022-08-22T21:14:36.040Z,2.58
2022-08-22T21:17:34.363Z,2.80
2022-08-22T21:20:25.245Z,2.78
2022-08-22T21:23:16.461Z,2.17
2022-08-22T21:26:21.002Z,2.63
2022-08-22T21:29:16.593Z,3.00
2022-08-22T21:32:32.542Z,2.47
2022-08-22T21:35:27.381Z,2.47
2022-08-22T21:38:19.309Z,2.80
2022-08-22T21:41:08.749Z,3.53
2022-08-22T21:43:58.284Z,4.50
2022-08-22T21:46:47.754Z,3.38
2022-08-22T21:50:16.967Z,3.15
2022-08-22T21:53:15.573Z,3.80
2022-08-22T21:56:17.552Z,2.65
2022-08-22T21:59:51.091Z,2.92
2022-08-22T22:02:43.869Z,3.58
2022-08-22T22:05:33.677Z,3.40
2022-08-22T22:08:23.466Z,3.38
2022-08-22T22:11:19.746Z,3.60
2022-08-22T22:14:09.350Z,4.07
2022-08-22T22:16:59.407Z,4.35
2022-08-22T22:19:49.313Z,4.70
2022-08-22T22:22:46.573Z,4.38
2022-08-22T22:25:40.759Z,4.47
2022-08-22T22:28:41.594Z,4.57
2022-08-22T22:31:31.401Z,4.57
2022-08-22T22:34:22.389Z,4.80
2022-08-22T22:37:13.288Z,4.70
2022-08-22T22:40:08.228Z,5.07
2022-08-22T22:42:57.678Z,4.50
2022-08-22T22:45:47.850Z,5.65
2022-08-22T22:48:37.253Z,3.65
2022-08-22T22:51:27.117Z,4.03
2022-08-22T22:54:17.286Z,3.75
2022-08-22T22:57:06.372Z,4.10
2022-08-22T23:00:02.439Z,4.10
2022-08-22T23:02:52.244Z,4.18
2022-08-22T23:05:41.884Z,4.50
2022-08-22T23:08:31.762Z,4.45
2022-08-22T23:11:25.279Z,4.35
2022-08-22T23:14:15.284Z,3.80
2022-08-22T23:17:05.576Z,3.47
2022-08-22T23:19:55.718Z,3.53
2022-08-22T23:22:46.964Z,3.63
2022-08-22T23:25:40.704Z,3.10
2022-08-22T23:28:33.090Z,3.10
2022-08-22T23:31:33.380Z,3.60
2022-08-22T23:34:29.237Z,3.17
2022-08-22T23:37:21.737Z,3.75
2022-08-22T23:40:11.871Z,3.75
2022-08-22T23:43:02.008Z,4.30
2022-08-22T23:45:54.523Z,3.70
2022-08-22T23:48:44.898Z,3.92
2022-08-22T23:51:35.006Z,3.63
2022-08-22T23:54:28.951Z,2.88
2022-08-22T23:57:19.363Z,3.20
